Time;durP1;ratioP1;P1;durP2;ratioP2;P2;SDS_P1;SDS_P2;PMS_P1;PMS_P2;Temp;Humidity;BMP_temperature;BMP_pressure;BME280_temperature;BME280_humidity;BME280_pressure;Samples;Min_cycle;Max_cycle;Signal;HPM_P1;HPM_P2
2023/09/20 00:00:29;;;;;;;6.90;2.25;;;;;;;18.44;70.25;100651.75;3592749;39;20060;-65
2023/09/20 00:02:56;;;;;;;8.35;2.15;;;;;;;18.49;70.02;100662.16;3594586;39;20119;-68
2023/09/20 00:05:22;;;;;;;7.55;2.10;;;;;;;18.46;70.75;100663.34;3593726;39;20048;-66
2023/09/20 00:07:50;;;;;;;6.25;2.22;;;;;;;18.44;70.19;100659.06;3596140;39;20073;-67
2023/09/20 00:10:18;;;;;;;6.07;2.13;;;;;;;18.40;70.93;100663.94;3597398;39;20347;-66
2023/09/20 00:12:44;;;;;;;7.10;2.40;;;;;;;18.40;70.38;100663.09;3595523;39;20055;-66
2023/09/20 00:15:11;;;;;;;6.63;2.30;;;;;;;18.38;70.39;100654.22;3593311;39;20371;-66
2023/09/20 00:17:37;;;;;;;4.88;1.80;;;;;;;18.37;71.28;100657.94;3592921;39;20353;-66
2023/09/20 00:20:12;;;;;;;6.40;2.50;;;;;;;18.35;71.12;100657.22;3594326;39;20047;-66
2023/09/20 00:22:44;;;;;;;4.88;2.30;;;;;;;18.31;70.99;100656.66;3596019;39;20071;-66
2023/09/20 00:25:12;;;;;;;7.55;2.53;;;;;;;18.28;71.71;100646.09;3595260;39;20473;-66
2023/09/20 00:27:40;;;;;;;7.65;2.17;;;;;;;18.27;71.99;100653.41;3596151;39;20338;-67
2023/09/20 00:30:10;;;;;;;3.90;1.95;;;;;;;18.26;72.03;100653.53;3592205;39;20061;-66
2023/09/20 00:32:40;;;;;;;5.43;2.10;;;;;;;17.79;71.82;100575.53;3597521;39;20050;-67
2023/09/20 00:35:11;;;;;;;10.02;2.50;;;;;;;18.12;71.81;100632.25;3593532;39;20055;-68
2023/09/20 00:37:41;;;;;;;6.13;2.90;;;;;;;18.22;71.38;100647.53;3595902;39;20048;-66
2023/09/20 00:40:17;;;;;;;6.32;2.70;;;;;;;18.21;72.18;100654.00;3594932;39;20383;-67
2023/09/20 00:42:45;;;;;;;6.40;2.55;;;;;;;18.20;72.72;100649.53;3594508;39;20380;-66
2023/09/20 00:45:15;;;;;;;6.90;2.55;;;;;;;18.19;72.46;100647.81;3594467;39;20055;-65
2023/09/20 00:47:55;;;;;;;7.60;2.85;;;;;;;18.18;72.58;100637.97;3594315;39;20316;-68
2023/09/20 00:50:22;;;;;;;7.32;3.00;;;;;;;18.18;72.85;100643.41;3593445;39;20064;-65
2023/09/20 00:52:52;;;;;;;6.15;2.78;;;;;;;18.18;72.45;100637.97;3595876;39;20067;-66
2023/09/20 00:55:23;;;;;;;7.47;2.55;;;;;;;18.19;72.83;100639.66;3594404;39;20044;-68
2023/09/20 00:57:56;;;;;;;5.32;2.58;;;;;;;18.19;72.35;100639.66;3593649;39;20095;-66
2023/09/20 01:00:30;;;;;;;4.60;2.08;;;;;;;18.20;72.43;100641.38;3591931;39;20310;-65
2023/09/20 01:02:57;;;;;;;;;;;;;;;18.18;72.19;100637.97;3593679;39;20047;-65
2023/09/20 01:05:28;;;;;;;8.50;2.22;;;;;;;18.16;73.11;100645.41;3591589;39;19936;-66
2023/09/20 01:07:56;;;;;;;5.65;1.90;;;;;;;18.12;73.11;100638.56;3594963;39;20479;-65
2023/09/20 01:10:26;;;;;;;5.65;2.60;;;;;;;18.16;72.46;100647.28;3594622;39;20396;-65
2023/09/20 01:12:54;;;;;;;5.60;2.17;;;;;;;18.14;72.56;100649.28;3595196;39;20064;-66
2023/09/20 01:15:21;;;;;;;6.40;2.38;;;;;;;18.13;72.58;100645.69;3594118;39;20291;-68
2023/09/20 01:17:50;;;;;;;3.92;2.13;;;;;;;17.98;72.86;100614.53;3593059;39;20129;-64
2023/09/20 01:20:20;;;;;;;5.43;2.15;;;;;;;18.10;73.45;100635.97;3585044;39;20063;-65
2023/09/20 01:22:51;;;;;;;6.13;2.13;;;;;;;18.10;73.84;100632.38;3593112;39;20044;-66
2023/09/20 01:25:38;;;;;;;7.55;2.42;;;;;;;17.88;73.82;100605.56;3593445;39;20056;-64
2023/09/20 01:28:08;;;;;;;3.10;1.95;;;;;;;18.07;73.88;100641.69;3594219;39;20047;-67
2023/09/20 01:30:37;;;;;;;6.40;2.33;;;;;;;18.06;73.62;100631.84;3592266;39;20086;-67
2023/09/20 01:33:09;;;;;;;4.45;2.05;;;;;;;18.06;73.84;100637.28;3592666;39;20067;-67
2023/09/20 01:35:37;;;;;;;6.27;2.27;;;;;;;18.06;73.60;100628.25;3592420;39;20044;-67
2023/09/20 01:38:07;;;;;;;5.50;2.30;;;;;;;18.06;74.07;100623.66;3592844;39;20782;-66
2023/09/20 01:40:34;;;;;;;5.07;2.40;;;;;;;18.09;73.81;100620.66;3593296;39;20484;-65
2023/09/20 01:43:08;;;;;;;4.32;2.10;;;;;;;18.10;73.78;100613.34;3591507;39;20121;-66
2023/09/20 01:45:36;;;;;;;4.43;2.30;;;;;;;18.12;73.92;100626.81;3594157;39;20047;-66
2023/09/20 01:48:08;;;;;;;5.20;2.38;;;;;;;17.99;73.69;100606.25;3593283;39;20120;-65
2023/09/20 01:50:35;;;;;;;9.80;2.47;;;;;;;18.15;74.40;100616.50;3592604;39;20047;-66
2023/09/20 01:53:05;;;;;;;5.47;2.00;;;;;;;18.17;74.04;100610.88;3593293;39;20063;-67
2023/09/20 01:55:31;;;;;;;6.38;2.25;;;;;;;18.21;73.75;100613.19;3592659;39;20383;-66
2023/09/20 01:58:06;;;;;;;5.03;2.38;;;;;;;18.24;74.31;100601.13;3593159;39;20087;-66
2023/09/20 02:00:37;;;;;;;3.83;1.95;;;;;;;18.28;74.02;100611.56;3593354;39;20079;-67
2023/09/20 02:03:08;;;;;;;4.03;2.03;;;;;;;18.31;74.16;100604.97;3593825;39;20082;-66
2023/09/20 02:05:36;;;;;;;6.72;2.33;;;;;;;18.07;73.81;100553.78;3591177;39;20077;-66
2023/09/20 02:08:03;;;;;;;6.38;2.10;;;;;;;18.39;73.48;100590.59;3592803;39;20068;-66
2023/09/20 02:10:29;;;;;;;6.25;2.00;;;;;;;18.44;73.17;100594.56;3591170;39;20086;-65
2023/09/20 02:12:56;;;;;;;4.40;2.28;;;;;;;18.45;72.79;100593.56;3589278;39;20445;-66
2023/09/20 02:15:25;;;;;;;5.43;2.20;;;;;;;18.50;73.13;100593.13;3592289;39;20058;-66
2023/09/20 02:17:51;;;;;;;6.25;2.42;;;;;;;18.37;72.79;100559.97;3593878;39;20059;-66
2023/09/20 02:20:23;;;;;;;6.68;2.30;;;;;;;18.59;72.91;100597.66;3592622;39;20125;-66
2023/09/20 02:22:51;;;;;;;6.68;2.10;;;;;;;18.64;72.32;100589.03;3593024;39;20047;-66
2023/09/20 02:25:20;;;;;;;5.28;2.13;;;;;;;18.51;72.38;100564.88;3592804;39;20060;-67
2023/09/20 02:27:47;;;;;;;4.25;2.00;;;;;;;18.66;72.25;100582.41;3593350;39;20055;-66
2023/09/20 02:30:16;;;;;;;6.47;2.22;;;;;;;18.69;72.37;100587.56;3592633;39;20390;-66
2023/09/20 02:32:52;;;;;;;5.38;2.05;;;;;;;18.66;72.88;100571.53;3594694;39;20067;-66
2023/09/20 02:35:19;;;;;;;5.43;2.53;;;;;;;18.67;72.48;100577.81;3583443;39;20586;-65
2023/09/20 02:37:47;;;;;;;6.75;2.30;;;;;;;18.57;72.70;100567.00;3593773;39;20048;-66
2023/09/20 02:40:14;;;;;;;7.13;2.15;;;;;;;18.69;72.64;100582.13;3593897;39;20059;-66
2023/09/20 02:42:47;;;;;;;6.15;2.22;;;;;;;18.31;72.08;100509.72;3592189;39;20166;-66
2023/09/20 02:45:15;;;;;;;;;;;;;;;18.64;72.73;100573.53;3590926;39;20415;-64
2023/09/20 02:47:43;;;;;;;5.55;2.47;;;;;;;18.66;72.24;100571.53;3594014;39;19932;-66
2023/09/20 02:50:12;;;;;;;7.93;2.42;;;;;;;18.66;72.34;100570.69;3590879;39;20095;-67
2023/09/20 02:52:39;;;;;;;4.63;2.33;;;;;;;18.64;72.15;100562.66;3592242;39;20082;-65
2023/09/20 02:55:07;;;;;;;5.47;2.35;;;;;;;18.60;72.26;100558.53;3593518;39;20401;-66
2023/09/20 02:57:37;;;;;;;5.82;2.03;;;;;;;18.60;72.49;100563.13;3582068;39;20044;-67
2023/09/20 03:00:11;;;;;;;9.32;2.40;;;;;;;18.58;73.30;100563.25;3594082;39;20148;-67
2023/09/20 03:02:36;;;;;;;5.68;2.33;;;;;;;18.54;72.53;100553.69;3592616;39;20084;-66
2023/09/20 03:05:03;;;;;;;3.85;2.13;;;;;;;18.51;73.52;100546.69;3595480;39;20055;-66
2023/09/20 03:07:28;;;;;;;4.03;2.08;;;;;;;18.47;73.77;100553.44;3597586;39;20076;-65
2023/09/20 03:09:54;;;;;;;4.95;2.55;;;;;;;18.46;74.16;100548.16;3597829;39;20058;-65
2023/09/20 03:12:20;;;;;;;6.65;2.38;;;;;;;18.41;73.85;100548.63;3590401;39;20067;-65
2023/09/20 03:14:45;;;;;;;6.80;2.60;;;;;;;18.38;74.07;100542.63;3593190;39;20338;-65
2023/09/20 03:17:12;;;;;;;4.55;2.20;;;;;;;18.38;74.47;100539.91;3594774;39;20102;-67
2023/09/20 03:19:38;;;;;;;6.00;2.20;;;;;;;18.35;73.61;100537.47;3596244;39;20063;-67
2023/09/20 03:22:05;;;;;;;7.13;2.70;;;;;;;18.30;74.24;100530.66;3597284;39;20043;-65
2023/09/20 03:24:30;;;;;;;5.13;2.38;;;;;;;18.30;74.28;100532.50;3597945;39;20135;-68
2023/09/20 03:26:57;;;;;;;6.88;2.30;;;;;;;18.20;74.26;100512.63;3596554;39;20422;-66
2023/09/20 03:29:26;;;;;;;5.65;2.28;;;;;;;18.10;74.61;100505.38;3594690;39;20055;-66
2023/09/20 03:31:52;;;;;;;7.47;2.45;;;;;;;18.16;74.99;100531.13;3594283;39;20148;-65
2023/09/20 03:34:20;;;;;;;6.35;2.55;;;;;;;18.13;75.35;100519.69;3594970;39;20118;-66
2023/09/20 03:36:46;;;;;;;5.30;2.25;;;;;;;18.03;75.86;100525.19;3597518;39;20138;-66
2023/09/20 03:39:12;;;;;;;6.20;2.50;;;;;;;18.02;75.68;100535.22;3596799;39;20079;-67
2023/09/20 03:41:38;;;;;;;3.58;1.83;;;;;;;17.97;76.07;100531.22;3596899;39;20082;-66
2023/09/20 03:44:08;;;;;;;5.43;2.22;;;;;;;17.42;76.10;100449.59;3594910;39;20054;-65
2023/09/20 03:46:35;;;;;;;7.57;2.67;;;;;;;17.88;76.26;100534.84;3594893;39;20117;-66
2023/09/20 03:49:01;;;;;;;3.28;1.98;;;;;;;17.82;77.22;100531.72;3596000;39;20078;-65
2023/09/20 03:51:27;;;;;;;3.83;2.17;;;;;;;17.78;77.12;100524.88;3591849;39;20052;-68
2023/09/20 03:53:52;;;;;;;6.95;2.60;;;;;;;17.73;77.74;100529.88;3598774;39;20058;-67
2023/09/20 03:56:18;;;;;;;9.27;2.20;;;;;;;17.68;77.26;100534.88;3592081;39;20101;-65
2023/09/20 03:58:44;;;;;;;5.97;2.40;;;;;;;17.66;78.07;100536.03;3591219;39;20047;-66
2023/09/20 04:01:10;;;;;;;4.85;2.28;;;;;;;17.62;78.15;100524.59;3592996;39;20063;-65
2023/09/20 04:03:36;;;;;;;6.90;2.50;;;;;;;17.59;78.61;100527.63;3595528;39;20040;-66
2023/09/20 04:06:02;;;;;;;7.18;2.33;;;;;;;17.50;78.90;100520.34;3595202;39;20081;-67
2023/09/20 04:08:27;;;;;;;6.20;2.20;;;;;;;17.50;78.53;100523.06;3599790;39;20059;-66
2023/09/20 04:10:56;;;;;;;5.13;2.63;;;;;;;17.46;79.45;100516.22;3594136;39;20052;-66
2023/09/20 04:13:23;;;;;;;6.70;2.42;;;;;;;17.40;78.96;100518.50;3593185;39;20405;-67
2023/09/20 04:15:49;;;;;;;4.78;2.28;;;;;;;17.40;79.80;100523.09;3593948;39;20071;-67
2023/09/20 04:18:15;;;;;;;6.75;2.58;;;;;;;17.03;79.17;100460.53;3593129;39;20115;-66
2023/09/20 04:20:45;;;;;;;8.05;2.45;;;;;;;17.34;79.71;100519.09;3592868;39;20054;-66
2023/09/20 04:23:11;;;;;;;4.30;2.35;;;;;;;17.33;79.48;100511.09;3595507;39;20054;-66
2023/09/20 04:25:36;;;;;;;9.05;2.63;;;;;;;17.29;79.53;100507.81;3592695;39;20060;-66
2023/09/20 04:28:02;;;;;;;6.72;2.38;;;;;;;17.29;79.67;100504.25;3594499;39;20063;-66
2023/09/20 04:30:29;;;;;;;6.57;2.17;;;;;;;17.27;80.83;100508.97;3584350;39;20048;-67
2023/09/20 04:32:55;;;;;;;5.32;2.30;;;;;;;17.27;80.17;100504.38;3583261;39;20384;-66
2023/09/20 04:35:20;;;;;;;7.75;2.30;;;;;;;17.28;79.92;100497.94;3592729;39;20093;-66
2023/09/20 04:37:46;;;;;;;8.20;2.10;;;;;;;17.22;80.37;100478.66;3592466;39;20068;-66
2023/09/20 04:40:12;;;;;;;6.00;2.47;;;;;;;17.28;80.96;100486.22;3593121;39;20055;-66
2023/09/20 04:42:38;;;;;;;6.85;2.30;;;;;;;17.25;80.43;100487.34;3593285;39;20126;-67
2023/09/20 04:45:06;;;;;;;6.63;2.63;;;;;;;17.25;80.84;100490.06;3584368;39;20402;-66
2023/09/20 04:47:35;;;;;;;7.20;2.53;;;;;;;17.23;81.31;100483.09;3591921;39;20076;-66
2023/09/20 04:50:02;;;;;;;3.85;2.40;;;;;;;16.97;80.79;100450.25;3593118;39;21584;-66
2023/09/20 04:52:28;;;;;;;6.40;2.40;;;;;;;17.20;80.97;100497.81;3590858;39;20110;-67
2023/09/20 04:54:54;;;;;;;4.38;2.30;;;;;;;17.19;81.54;100487.97;3588654;39;20290;-66
2023/09/20 04:57:20;;;;;;;6.38;2.58;;;;;;;17.18;81.80;100488.94;3592069;39;20051;-66
2023/09/20 04:59:45;;;;;;;6.65;2.63;;;;;;;17.17;81.58;100484.53;3586388;39;20056;-66
2023/09/20 05:02:13;;;;;;;6.30;2.97;;;;;;;17.14;81.28;100491.09;3592405;39;20055;-67
2023/09/20 05:04:40;;;;;;;6.07;3.22;;;;;;;17.14;82.06;100479.38;3592572;39;20054;-66
2023/09/20 05:07:06;;;;;;;6.65;2.40;;;;;;;16.91;81.27;100443.56;3594805;39;20645;-66
2023/09/20 05:09:34;;;;;;;6.07;2.20;;;;;;;17.14;81.15;100472.09;3594976;39;20052;-66
2023/09/20 05:12:02;;;;;;;6.25;2.25;;;;;;;17.11;81.64;100474.25;3594370;39;20067;-66
2023/09/20 05:14:28;;;;;;;5.32;2.28;;;;;;;17.10;81.81;100480.69;3591846;39;20090;-67
2023/09/20 05:16:54;;;;;;;7.40;2.50;;;;;;;16.82;82.52;100434.41;3595182;39;20051;-65
2023/09/20 05:19:20;;;;;;;6.85;2.53;;;;;;;17.08;81.85;100480.81;3590676;39;20398;-66
2023/09/20 05:21:45;;;;;;;9.70;2.65;;;;;;;17.06;82.15;100481.97;3593950;39;20063;-65
2023/09/20 05:24:11;;;;;;;7.38;2.80;;;;;;;17.05;83.00;100488.41;3591632;39;20393;-66
2023/09/20 05:26:37;;;;;;;8.77;2.60;;;;;;;17.06;82.35;100487.41;3595723;39;20063;-67
2023/09/20 05:29:03;;;;;;;6.95;2.50;;;;;;;17.04;82.58;100478.56;3595453;39;20083;-67
2023/09/20 05:31:29;;;;;;;5.28;2.65;;;;;;;17.00;82.94;100467.13;3592388;39;21966;-66
2023/09/20 05:33:55;;;;;;;7.05;2.80;;;;;;;17.06;82.95;100471.97;3590583;39;20098;-66
2023/09/20 05:36:27;;;;;;;3.70;1.92;;;;;;;17.08;82.39;100474.53;3587052;39;20128;-66
2023/09/20 05:38:56;;;;;;;6.57;2.53;;;;;;;17.10;82.60;100475.25;3591253;39;20121;-67
2023/09/20 05:41:21;;;;;;;4.15;2.20;;;;;;;17.12;83.09;100475.94;3593475;39;20064;-66
2023/09/20 05:43:47;;;;;;;5.75;2.17;;;;;;;17.12;82.61;100467.81;3592256;39;20352;-67
2023/09/20 05:46:13;;;;;;;4.90;2.35;;;;;;;17.12;83.03;100475.94;3592714;39;20066;-66
2023/09/20 05:48:39;;;;;;;5.45;2.63;;;;;;;17.13;83.11;100462.25;3593143;39;20287;-69
2023/09/20 05:51:05;;;;;;;4.32;2.45;;;;;;;17.00;82.93;100447.25;3596379;39;20105;-66
2023/09/20 05:53:33;;;;;;;4.35;2.45;;;;;;;17.17;82.46;100468.22;3595715;39;20509;-65
2023/09/20 05:56:08;;;;;;;7.05;2.20;;;;;;;17.03;83.29;100439.69;3594883;39;20054;-65
2023/09/20 05:58:34;;;;;;;5.90;2.50;;;;;;;17.17;83.42;100470.94;3597049;39;20367;-68
2023/09/20 06:01:00;;;;;;;5.20;2.33;;;;;;;17.20;83.02;100472.53;3592940;39;20054;-68
2023/09/20 06:03:26;;;;;;;4.70;2.17;;;;;;;17.21;82.82;100474.22;3593265;39;20068;-66
2023/09/20 06:05:51;;;;;;;4.57;2.53;;;;;;;17.25;82.92;100481.94;3594383;39;20471;-66
2023/09/20 06:08:17;;;;;;;4.72;2.20;;;;;;;17.28;82.66;100478.06;3596523;39;20274;-68
2023/09/20 06:10:44;;;;;;;3.95;1.85;;;;;;;17.30;82.89;100467.91;3593937;39;20048;-66
2023/09/20 06:13:10;;;;;;;3.58;2.13;;;;;;;17.20;82.65;100446.22;3592115;39;20060;-65
2023/09/20 06:15:37;;;;;;;4.50;2.00;;;;;;;17.34;82.62;100458.47;3595309;39;20051;-66
2023/09/20 06:18:03;;;;;;;4.85;2.20;;;;;;;17.43;82.78;100473.03;3592775;39;20082;-68
2023/09/20 06:20:29;;;;;;;5.88;2.53;;;;;;;17.44;83.16;100458.44;3591558;39;20500;-67
2023/09/20 06:22:56;;;;;;;4.20;2.33;;;;;;;17.46;82.44;100457.28;3591084;39;20091;-66
2023/09/20 06:25:22;;;;;;;3.38;2.28;;;;;;;17.46;82.58;100459.16;3589369;39;20067;-67
2023/09/20 06:27:51;;;;;;;4.75;2.10;;;;;;;17.51;82.43;100475.88;3593289;39;20122;-67
2023/09/20 06:30:17;;;;;;;4.97;2.40;;;;;;;17.54;82.86;100460.13;3591835;39;20386;-64
2023/09/20 06:32:44;;;;;;;9.40;2.28;;;;;;;17.60;83.10;100464.09;3591644;39;20116;-67
2023/09/20 06:35:12;;;;;;;3.38;1.80;;;;;;;17.60;82.57;100469.53;3592984;39;20055;-66
2023/09/20 06:37:38;;;;;;;5.88;2.40;;;;;;;17.64;82.89;100473.69;3591693;39;20051;-67
2023/09/20 06:40:34;;;;;;;4.75;2.20;;;;;;;17.69;82.03;100473.22;3583320;39;20141;-66
2023/09/20 06:42:52;;;;;;;3.20;1.73;;;;;;;17.72;82.84;100470.19;3593345;39;20055;-67
2023/09/20 06:45:20;;;;;;;5.22;2.10;;;;;;;17.78;81.74;100462.31;3594299;39;20059;-66
2023/09/20 06:47:46;;;;;;;6.85;2.17;;;;;;;17.85;82.25;100459.84;3590425;39;20059;-66
2023/09/20 06:50:15;;;;;;;2.80;1.67;;;;;;;17.91;82.41;100469.28;3592531;39;20504;-66
2023/09/20 06:52:44;;;;;;;3.88;1.90;;;;;;;17.98;81.71;100462.22;3592805;39;20056;-65
2023/09/20 06:55:16;;;;;;;4.95;2.35;;;;;;;18.05;81.29;100468.78;3584529;39;20372;-68
2023/09/20 06:57:42;;;;;;;3.33;1.90;;;;;;;18.12;80.69;100479.91;3591274;39;20056;-66
2023/09/20 07:00:42;;;;;;;6.10;2.28;;;;;;;18.18;79.85;100474.72;3590853;39;20056;-67
2023/09/20 07:03:03;;;;;;;4.95;2.08;;;;;;;18.26;80.14;100472.06;3589558;39;20311;-67
2023/09/20 07:05:30;;;;;;;5.10;2.03;;;;;;;18.31;79.02;100466.19;3589431;39;20151;-68
2023/09/20 07:07:58;;;;;;;5.65;2.10;;;;;;;18.37;79.27;100456.56;3590038;39;20067;-66
2023/09/20 07:10:25;;;;;;;6.05;2.13;;;;;;;18.47;79.71;100468.22;3590674;39;20051;-66
2023/09/20 07:12:53;;;;;;;4.68;1.90;;;;;;;18.62;78.68;100471.25;3593422;39;20055;-65
2023/09/20 07:15:24;;;;;;;5.35;1.92;;;;;;;18.61;77.34;100462.22;3593824;39;20276;-66
2023/09/20 07:17:58;;;;;;;7.30;2.13;;;;;;;18.69;77.33;100458.72;3591415;39;20075;-68
2023/09/20 07:20:28;;;;;;;4.15;1.90;;;;;;;18.77;77.21;100453.38;3591246;39;20048;-65
2023/09/20 07:22:55;;;;;;;3.13;2.03;;;;;;;18.82;76.89;100461.94;3593557;39;21190;-67
2023/09/20 07:25:23;;;;;;;3.65;1.80;;;;;;;18.89;76.27;100464.88;3592658;39;20063;-65
2023/09/20 07:27:50;;;;;;;3.95;2.13;;;;;;;19.00;76.40;100461.94;3592980;39;20051;-66
2023/09/20 07:30:19;;;;;;;5.20;1.80;;;;;;;18.92;75.92;100434.59;3592573;39;20393;-64
2023/09/20 07:32:47;;;;;;;6.40;2.00;;;;;;;19.19;76.01;100463.59;3584510;39;20054;-65
2023/09/20 07:35:26;;;;;;;4.45;1.92;;;;;;;19.20;74.70;100457.97;3594562;39;20051;-67
2023/09/20 07:37:57;;;;;;;5.30;2.08;;;;;;;19.41;74.22;100456.72;3589731;39;20063;-65
2023/09/20 07:40:28;;;;;;;5.50;2.03;;;;;;;19.45;73.90;100464.44;3590495;39;20501;-66
2023/09/20 07:43:06;;;;;;;3.78;2.00;;;;;;;19.45;72.72;100483.53;3592810;39;20067;-65
2023/09/20 07:45:38;;;;;;;3.78;2.17;;;;;;;19.45;73.40;100474.50;3593039;39;20099;-65
2023/09/20 07:48:13;;;;;;;3.90;2.05;;;;;;;19.46;73.62;100473.47;3592020;39;20044;-66
2023/09/20 07:50:44;;;;;;;7.60;2.58;;;;;;;19.48;73.88;100479.63;3589160;39;20394;-67
2023/09/20 07:53:14;;;;;;;6.18;2.30;;;;;;;19.49;73.63;100476.72;3591904;39;20100;-65
2023/09/20 07:55:44;;;;;;;3.97;1.73;;;;;;;19.56;73.52;100460.56;3591421;39;20059;-67
2023/09/20 07:58:14;;;;;;;3.55;2.20;;;;;;;19.60;73.29;100472.00;3592690;39;20058;-67
2023/09/20 08:00:44;;;;;;;4.18;2.17;;;;;;;19.61;72.44;100469.13;3592415;39;20051;-67
2023/09/20 08:03:14;;;;;;;6.13;2.22;;;;;;;19.62;73.54;100469.97;3592209;39;20423;-66
2023/09/20 08:05:43;;;;;;;6.38;2.53;;;;;;;19.67;72.85;100459.47;3591261;39;20055;-67
2023/09/20 08:08:10;;;;;;;3.80;2.35;;;;;;;19.77;72.36;100467.53;3591784;39;20056;-65
2023/09/20 08:10:38;;;;;;;5.82;2.75;;;;;;;19.86;72.11;100466.56;3591876;39;20059;-66
2023/09/20 08:13:05;;;;;;;2.97;2.30;;;;;;;19.90;71.72;100467.94;3592299;39;20096;-65
2023/09/20 08:15:41;;;;;;;5.38;2.33;;;;;;;19.93;71.57;100467.59;3592514;39;20056;-66
2023/09/20 08:20:57;;;;;;;5.57;2.50;;;;;;;20.10;71.23;100477.53;3594128;39;20125;-65
2023/09/20 09:02:14;;;;;;;5.72;2.42;;;;;;;21.18;67.11;100485.75;3592911;39;20349;-69
2023/09/20 09:04:53;;;;;;;4.07;2.05;;;;;;;21.23;67.06;100483.38;3590400;39;20073;-66
2023/09/20 09:07:22;;;;;;;5.20;2.05;;;;;;;21.20;66.72;100491.91;3591982;39;20052;-67
2023/09/20 09:09:49;;;;;;;4.60;2.03;;;;;;;21.13;66.42;100499.09;3592557;39;20310;-67
2023/09/20 09:12:16;;;;;;;3.90;1.95;;;;;;;21.09;66.59;100484.03;3592626;39;20086;-65
2023/09/20 09:14:42;;;;;;;3.53;2.20;;;;;;;21.02;67.11;100483.03;3581420;39;20058;-66
2023/09/20 09:17:10;;;;;;;3.92;2.28;;;;;;;21.09;67.81;100489.50;3591277;39;20383;-68
2023/09/20 09:19:38;;;;;;;3.58;1.92;;;;;;;21.11;67.64;100473.81;3590910;39;20048;-66
2023/09/20 09:22:04;;;;;;;3.72;1.90;;;;;;;21.12;67.37;100470.03;3590740;39;20036;-66
2023/09/20 09:24:45;;;;;;;3.75;1.77;;;;;;;21.14;67.72;100472.59;3591705;39;20086;-65
2023/09/20 09:27:14;;;;;;;5.78;2.28;;;;;;;21.17;67.30;100486.78;3593022;39;20081;-66
2023/09/20 09:29:43;;;;;;;4.60;2.00;;;;;;;21.20;66.83;100470.03;3592679;39;20101;-65
2023/09/20 09:32:08;;;;;;;3.20;1.90;;;;;;;21.17;66.64;100472.25;3594444;39;20055;-68
2023/09/20 09:34:34;;;;;;;5.47;2.28;;;;;;;21.30;66.57;100478.06;3590126;39;20056;-66
2023/09/20 09:37:00;;;;;;;8.20;3.90;;;;;;;21.48;66.51;100478.75;3585227;39;20422;-66
2023/09/20 09:39:26;;;;;;;6.78;2.13;;;;;;;21.58;65.80;100480.44;3595652;39;20050;-66
2023/09/20 09:41:53;;;;;;;4.30;2.17;;;;;;;21.65;65.58;100475.97;3592742;39;20072;-66
2023/09/20 09:44:20;;;;;;;3.95;1.92;;;;;;;21.76;65.68;100473.72;3592181;39;20113;-66
2023/09/20 09:46:45;;;;;;;3.92;1.77;;;;;;;21.89;64.69;100470.41;3591662;39;20055;-68
2023/09/20 09:49:12;;;;;;;2.90;2.00;;;;;;;21.92;64.28;100461.84;3591407;39;20328;-65
2023/09/20 09:51:51;;;;;;;3.50;2.17;;;;;;;22.08;64.44;100460.06;3592330;39;20151;-65
2023/09/20 09:54:20;;;;;;;3.00;1.95;;;;;;;22.18;63.55;100472.53;3592373;39;20361;-66
2023/09/20 09:56:48;;;;;;;3.15;1.98;;;;;;;22.27;64.22;100465.13;3591394;39;20059;-66
2023/09/20 09:59:15;;;;;;;3.97;1.98;;;;;;;22.13;62.20;100436.56;3592616;39;20067;-65
2023/09/20 10:01:42;;;;;;;2.50;1.70;;;;;;;22.24;63.42;100449.06;3591452;39;20123;-65
2023/09/20 10:04:10;;;;;;;4.32;1.80;;;;;;;22.33;62.90;100453.47;3591855;39;20056;-66
2023/09/20 10:07:14;;;;;;;2.35;1.50;;;;;;;22.36;61.80;100468.66;3591293;39;20414;-67
2023/09/20 10:09:48;;;;;;;;;;;;;;;22.35;62.54;100445.88;3594994;39;20048;-66
2023/09/20 10:12:16;;;;;;;5.18;1.50;;;;;;;22.41;62.17;100453.38;3593777;39;19934;-65
2023/09/20 10:14:44;;;;;;;2.22;1.60;;;;;;;22.43;62.02;100448.59;3591653;39;20136;-67
2023/09/20 10:17:21;;;;;;;3.10;1.60;;;;;;;22.55;63.23;100443.56;3591940;39;20137;-66
2023/09/20 10:19:53;;;;;;;2.30;1.60;;;;;;;22.89;60.10;100442.25;3592705;39;20066;-67
2023/09/20 10:22:22;;;;;;;3.70;1.60;;;;;;;23.07;58.25;100433.72;3595784;39;20046;-68
2023/09/20 10:25:01;;;;;;;5.30;1.52;;;;;;;23.32;58.31;100437.06;3593484;39;20132;-67
2023/09/20 10:27:30;;;;;;;3.60;1.60;;;;;;;23.50;57.13;100444.94;3593994;39;20496;-68
2023/09/20 10:30:10;;;;;;;4.88;1.60;;;;;;;23.54;57.10;100441.63;3594418;39;20060;-67
2023/09/20 10:32:48;;;;;;;2.00;1.20;;;;;;;23.55;57.29;100447.97;3591378;39;20055;-66
2023/09/20 10:35:19;;;;;;;5.40;1.50;;;;;;;23.59;57.14;100433.66;3593715;39;20074;-66
2023/09/20 10:38:04;;;;;;;2.60;1.23;;;;;;;23.64;56.17;100430.38;3594959;39;20390;-66
2023/09/20 10:40:45;;;;;;;2.03;1.17;;;;;;;23.49;56.72;100424.88;3591489;39;20117;-66
2023/09/20 10:43:25;;;;;;;3.85;1.40;;;;;;;23.41;56.22;100438.69;3584322;39;20047;-67
2023/09/20 10:45:53;;;;;;;1.88;1.17;;;;;;;23.31;56.97;100414.28;3589425;39;20056;-67
2023/09/20 10:48:24;;;;;;;2.25;1.05;;;;;;;23.32;57.85;100413.25;3591080;39;20064;-66
2023/09/20 10:50:57;;;;;;;2.95;1.30;;;;;;;23.32;57.81;100415.97;3592548;39;20068;-66
2023/09/20 10:53:50;;;;;;;2.67;1.13;;;;;;;23.28;57.26;100419.28;3592939;39;20051;-67
2023/09/20 10:56:53;;;;;;;2.80;1.20;;;;;;;23.25;58.12;100411.41;3592566;39;20064;-66
2023/09/20 10:59:22;;;;;;;3.22;1.20;;;;;;;23.28;57.40;100409.19;3593792;39;20055;-66
2023/09/20 11:02:09;;;;;;;3.65;1.45;;;;;;;23.32;58.07;100404.16;3592350;39;20609;-67
2023/09/20 11:04:37;;;;;;;4.05;2.40;;;;;;;23.32;58.14;100405.00;3592675;39;20062;-67
2023/09/20 11:07:05;;;;;;;2.17;1.17;;;;;;;23.20;58.22;100401.03;3591475;39;20071;-66
2023/09/20 11:09:33;;;;;;;2.90;0.98;;;;;;;23.04;58.73;100369.16;3591018;39;20395;-65
2023/09/20 11:12:06;;;;;;;2.38;1.10;;;;;;;23.22;56.79;100392.63;3593302;39;20102;-67
2023/09/20 11:14:44;;;;;;;2.10;1.20;;;;;;;23.12;57.96;100404.72;3591974;39;20125;-67
2023/09/20 11:17:16;;;;;;;2.85;1.15;;;;;;;23.10;57.61;100405.94;3590033;39;20052;-66
2023/09/20 11:19:42;;;;;;;1.67;1.20;;;;;;;23.15;59.04;100408.94;3592989;39;20051;-67
2023/09/20 11:22:08;;;;;;;2.53;1.27;;;;;;;23.16;58.16;100386.00;3591069;39;20067;-70
2023/09/20 11:24:36;;;;;;;3.03;1.30;;;;;;;23.16;56.28;100378.63;3592667;39;20048;-67
2023/09/20 11:27:02;;;;;;;1.67;1.10;;;;;;;23.32;56.71;100407.75;3592766;39;20048;-67
2023/09/20 11:29:28;;;;;;;2.97;1.05;;;;;;;23.49;55.93;100396.59;3593220;39;20055;-65
2023/09/20 11:31:59;;;;;;;1.92;0.90;;;;;;;23.46;56.28;100394.22;3590944;39;20059;-65
2023/09/20 11:34:41;;;;;;;3.25;0.88;;;;;;;23.35;55.97;100401.88;3595566;39;20093;-68
2023/09/20 11:37:07;;;;;;;1.63;1.15;;;;;;;23.19;57.22;100382.03;3583632;39;20311;-66
2023/09/20 11:39:34;;;;;;;3.10;1.10;;;;;;;23.17;57.45;100395.91;3594994;39;20093;-68
2023/09/20 11:42:01;;;;;;;2.25;1.20;;;;;;;23.03;57.89;100383.06;3592996;39;20052;-66
2023/09/20 11:44:28;;;;;;;2.92;1.05;;;;;;;23.10;58.00;100394.97;3597798;39;21139;-68
2023/09/20 11:46:57;;;;;;;2.40;1.25;;;;;;;23.04;57.11;100395.72;3593944;39;20095;-69
2023/09/20 11:49:24;;;;;;;3.65;1.25;;;;;;;22.97;58.00;100398.34;3588522;39;20059;-67
2023/09/20 11:51:54;;;;;;;1.05;0.90;;;;;;;22.96;57.44;100393.03;3591743;39;20060;-67
2023/09/20 11:54:26;;;;;;;3.10;1.20;;;;;;;23.01;57.49;100396.09;3593385;39;20136;-67
2023/09/20 11:56:51;;;;;;;2.70;1.20;;;;;;;23.20;57.09;100390.06;3591127;39;20068;-66
2023/09/20 11:59:18;;;;;;;2.97;1.30;;;;;;;23.15;56.62;100409.81;3596933;39;20063;-66
2023/09/20 12:01:45;;;;;;;2.80;1.40;;;;;;;23.14;56.29;100412.75;3593009;39;20087;-69
2023/09/20 12:04:12;;;;;;;5.05;1.52;;;;;;;22.98;56.60;100374.53;3593140;39;20056;-67
2023/09/20 12:06:38;;;;;;;2.78;0.95;;;;;;;23.08;57.09;100397.03;3596117;39;20416;-68
2023/09/20 12:09:07;;;;;;;2.60;1.50;;;;;;;23.14;57.10;100413.59;3596057;39;20063;-68
2023/09/20 12:11:32;;;;;;;1.70;1.20;;;;;;;23.05;55.65;100409.22;3592436;39;20069;-66
2023/09/20 12:13:58;;;;;;;2.13;1.15;;;;;;;22.98;55.73;100397.31;3594360;39;20052;-66
2023/09/20 12:16:24;;;;;;;1.30;1.20;;;;;;;22.99;55.54;100389.94;3593527;39;20071;-67